Time;durP1;ratioP1;P1;durP2;ratioP2;P2;SDS_P1;SDS_P2;PMS_P1;PMS_P2;Temp;Humidity;BMP_temperature;BMP_pressure;BME280_temperature;BME280_humidity;BME280_pressure;Samples;Min_cycle;Max_cycle;Signal;HPM_P1;HPM_P2
2022/09/29 00:00:58;;;;;;;5.25;4.68;;;;;;;;;;5011107;28;20051;-68
2022/09/29 00:03:24;;;;;;;5.80;4.75;;;;;;;;;;5005539;28;20581;-69
2022/09/29 00:05:51;;;;;;;9.18;4.75;;;;;;;;;;5003018;28;20510;-68
2022/09/29 00:08:18;;;;;;;5.95;4.40;;;;;;;;;;4997990;28;20063;-69
2022/09/29 00:10:45;;;;;;;6.85;4.68;;;;;;;;;;4997977;28;20065;-68
2022/09/29 00:13:12;;;;;;;8.32;5.53;;;;;;;;;;5008932;28;20989;-69
2022/09/29 00:15:38;;;;;;;7.68;4.80;;;;;;;;;;5010165;28;20054;-68
2022/09/29 00:18:04;;;;;;;8.52;4.93;;;;;;;;;;5012171;28;20065;-68
2022/09/29 00:20:40;;;;;;;7.90;5.45;;;;;;;;;;5010595;28;20051;-69
2022/09/29 00:23:06;;;;;;;6.88;5.20;;;;;;;;;;5011540;28;20069;-69
2022/09/29 00:25:32;;;;;;;9.13;5.60;;;;;;;;;;5010570;28;20561;-69
2022/09/29 00:27:58;;;;;;;8.63;5.55;;;;;;;;;;5007088;28;20054;-69
2022/09/29 00:30:25;;;;;;;7.50;5.10;;;;;;;;;;5011403;28;20054;-69
2022/09/29 00:32:51;;;;;;;5.22;4.40;;;;;;;;;;5001062;28;20519;-69
2022/09/29 00:35:18;;;;;;;5.60;4.95;;;;;;;;;;4993469;28;20958;-68
2022/09/29 00:37:44;;;;;;;7.35;4.80;;;;;;;;;;5011500;28;20066;-68
2022/09/29 00:40:10;;;;;;;8.27;5.60;;;;;;;;;;5011603;28;20046;-68
2022/09/29 00:42:36;;;;;;;6.43;5.05;;;;;;;;;;5007253;28;20108;-69
2022/09/29 00:45:12;;;;;;;6.20;4.90;;;;;;;;;;5004940;28;20169;-68
2022/09/29 00:47:39;;;;;;;6.80;5.68;;;;;;;;;;5026589;28;20050;-68
2022/09/29 00:50:13;;;;;;;10.18;5.13;;;;;;;;;;5011610;28;20058;-69
2022/09/29 00:52:45;;;;;;;7.10;5.80;;;;;;;;;;5007178;28;20581;-68
2022/09/29 00:55:30;;;;;;;6.30;5.30;;;;;;;;;;5011314;28;20050;-68
2022/09/29 00:58:00;;;;;;;8.17;5.40;;;;;;;;;;5006666;28;20061;-69
2022/09/29 01:00:26;;;;;;;7.03;5.25;;;;;;;;;;4991989;28;20333;-69
2022/09/29 01:02:59;;;;;;;9.30;6.07;;;;;;;;;;5004300;28;20422;-69
2022/09/29 01:05:27;;;;;;;8.00;5.40;;;;;;;;;;5010438;28;20117;-69
2022/09/29 01:07:53;;;;;;;8.13;5.85;;;;;;;;;;5010540;28;20105;-69
2022/09/29 01:10:20;;;;;;;9.90;5.65;;;;;;;;;;5010765;28;20555;-69
2022/09/29 01:12:47;;;;;;;6.28;5.03;;;;;;;;;;5024944;28;20058;-69
2022/09/29 01:15:15;;;;;;;6.93;5.30;;;;;;;;;;5010784;28;20093;-68
2022/09/29 01:17:41;;;;;;;7.95;6.10;;;;;;;;;;5011491;28;20494;-69
2022/09/29 01:20:19;;;;;;;7.68;5.57;;;;;;;;;;5010162;28;20050;-69
2022/09/29 01:22:48;;;;;;;7.55;5.05;;;;;;;;;;5010236;28;21026;-68
2022/09/29 01:25:28;;;;;;;13.23;5.65;;;;;;;;;;5010589;28;20105;-69
2022/09/29 01:28:12;;;;;;;6.68;5.05;;;;;;;;;;5009159;28;20047;-69
2022/09/29 01:30:48;;;;;;;6.78;5.15;;;;;;;;;;5011251;28;20059;-68
2022/09/29 01:33:20;;;;;;;6.47;5.15;;;;;;;;;;5010073;28;20502;-68
2022/09/29 01:35:46;;;;;;;9.23;6.38;;;;;;;;;;5010029;28;20057;-69
2022/09/29 01:38:31;;;;;;;8.48;5.40;;;;;;;;;;5011154;28;20568;-68
2022/09/29 01:40:58;;;;;;;6.90;5.57;;;;;;;;;;4991900;28;20098;-69
2022/09/29 01:43:30;;;;;;;13.00;6.65;;;;;;;;;;4994669;28;20086;-69
2022/09/29 01:46:01;;;;;;;7.18;5.95;;;;;;;;;;5006856;28;20059;-69
2022/09/29 01:48:30;;;;;;;9.18;5.95;;;;;;;;;;5012556;28;20054;-69
2022/09/29 01:50:59;;;;;;;6.13;5.10;;;;;;;;;;5014072;28;20065;-69
2022/09/29 01:53:36;;;;;;;6.80;5.90;;;;;;;;;;5013664;28;20109;-68
2022/09/29 01:56:05;;;;;;;8.27;5.40;;;;;;;;;;5013021;28;20058;-69
2022/09/29 01:58:36;;;;;;;6.88;5.80;;;;;;;;;;5012875;28;20110;-69
2022/09/29 02:01:05;;;;;;;8.90;5.50;;;;;;;;;;5012654;28;20486;-69
2022/09/29 02:03:37;;;;;;;5.95;5.35;;;;;;;;;;5004826;28;20057;-69
2022/09/29 02:06:07;;;;;;;8.05;6.40;;;;;;;;;;5002295;28;20058;-68
2022/09/29 02:08:41;;;;;;;7.65;5.20;;;;;;;;;;5013664;28;20101;-69
2022/09/29 02:11:11;;;;;;;7.03;6.00;;;;;;;;;;5012753;28;20058;-68
2022/09/29 02:13:39;;;;;;;9.57;5.80;;;;;;;;;;5013338;28;20058;-69
2022/09/29 02:16:08;;;;;;;6.20;5.00;;;;;;;;;;5013060;28;20047;-68
2022/09/29 02:18:39;;;;;;;7.00;5.75;;;;;;;;;;5013601;28;20081;-68
2022/09/29 02:21:05;;;;;;;7.95;5.95;;;;;;;;;;5013630;28;20058;-69
2022/09/29 02:23:31;;;;;;;7.03;5.57;;;;;;;;;;5011612;28;20054;-68
2022/09/29 02:25:58;;;;;;;6.13;5.15;;;;;;;;;;5007451;28;20058;-68
2022/09/29 02:28:25;;;;;;;8.00;5.43;;;;;;;;;;4995840;28;20055;-68
2022/09/29 02:30:51;;;;;;;7.30;5.70;;;;;;;;;;5013647;28;20478;-68
2022/09/29 02:33:19;;;;;;;7.53;6.65;;;;;;;;;;5006561;28;20121;-69
2022/09/29 02:35:57;;;;;;;7.95;6.47;;;;;;;;;;5006093;28;20054;-69
2022/09/29 02:39:02;;;;;;;7.03;6.28;;;;;;;;;;5012773;28;20109;-69
2022/09/29 02:41:47;;;;;;;6.75;5.35;;;;;;;;;;4942076;28;20055;-69
2022/09/29 02:44:22;;;;;;;7.78;5.97;;;;;;;;;;4946409;28;20614;-69
2022/09/29 02:47:03;;;;;;;8.73;6.15;;;;;;;;;;4992387;28;20113;-69
2022/09/29 02:49:48;;;;;;;8.85;6.20;;;;;;;;;;5012487;28;20113;-69
2022/09/29 02:52:15;;;;;;;6.93;5.80;;;;;;;;;;5011836;28;20491;-69
2022/09/29 02:54:56;;;;;;;7.45;6.25;;;;;;;;;;5010102;28;20058;-68
2022/09/29 02:57:23;;;;;;;10.07;6.85;;;;;;;;;;5012376;28;20062;-68
2022/09/29 02:59:55;;;;;;;6.72;6.03;;;;;;;;;;5013320;28;20600;-68
2022/09/29 03:02:23;;;;;;;8.43;6.57;;;;;;;;;;5010726;28;20124;-68
2022/09/29 03:04:49;;;;;;;7.38;6.45;;;;;;;;;;5012052;28;20058;-69
2022/09/29 03:07:16;;;;;;;6.30;5.32;;;;;;;;;;5001183;28;20050;-69
2022/09/29 03:09:43;;;;;;;8.05;6.43;;;;;;;;;;5006119;28;20570;-69
2022/09/29 03:12:09;;;;;;;8.20;5.88;;;;;;;;;;5012838;28;20491;-69
2022/09/29 03:14:35;;;;;;;7.50;5.65;;;;;;;;;;5012829;28;20565;-69
2022/09/29 03:17:02;;;;;;;7.18;5.88;;;;;;;;;;5008262;28;20055;-69
2022/09/29 03:19:28;;;;;;;9.00;6.15;;;;;;;;;;4999251;28;20058;-69
2022/09/29 03:21:55;;;;;;;7.18;6.10;;;;;;;;;;5011797;28;20065;-69
2022/09/29 03:24:21;;;;;;;7.45;5.90;;;;;;;;;;5011741;28;20058;-69
2022/09/29 03:26:47;;;;;;;8.15;6.43;;;;;;;;;;5012875;28;20058;-68
2022/09/29 03:29:13;;;;;;;7.07;6.35;;;;;;;;;;4998151;28;20059;-69
2022/09/29 03:31:40;;;;;;;6.78;6.05;;;;;;;;;;5008126;28;20046;-69
2022/09/29 03:34:06;;;;;;;8.25;5.93;;;;;;;;;;5012503;28;20193;-69
2022/09/29 03:36:32;;;;;;;8.13;5.78;;;;;;;;;;5009076;28;20106;-69
2022/09/29 03:38:59;;;;;;;7.47;5.43;;;;;;;;;;5006328;28;20058;-69
2022/09/29 03:41:25;;;;;;;8.00;5.88;;;;;;;;;;5012265;28;20058;-68
2022/09/29 03:43:51;;;;;;;8.65;6.20;;;;;;;;;;5011640;28;20053;-69
2022/09/29 03:46:17;;;;;;;8.25;5.95;;;;;;;;;;5010043;28;20117;-69
2022/09/29 03:48:44;;;;;;;7.13;5.68;;;;;;;;;;4996308;28;20058;-69
2022/09/29 03:51:10;;;;;;;11.48;6.30;;;;;;;;;;5009392;28;20109;-69
2022/09/29 03:53:36;;;;;;;8.50;5.45;;;;;;;;;;4999558;28;20058;-69
2022/09/29 03:56:03;;;;;;;9.15;6.55;;;;;;;;;;5009938;28;20113;-69
2022/09/29 03:58:29;;;;;;;8.30;6.10;;;;;;;;;;5011498;28;20062;-69
2022/09/29 04:00:55;;;;;;;8.15;6.28;;;;;;;;;;5010356;28;20511;-68
2022/09/29 04:03:22;;;;;;;7.63;6.25;;;;;;;;;;5010409;28;20055;-69
2022/09/29 04:05:48;;;;;;;9.50;6.22;;;;;;;;;;5011902;28;20557;-68
2022/09/29 04:08:15;;;;;;;7.35;6.15;;;;;;;;;;5010750;28;20419;-68
2022/09/29 04:10:41;;;;;;;9.68;6.63;;;;;;;;;;5011318;28;20085;-69
2022/09/29 04:13:07;;;;;;;8.35;6.68;;;;;;;;;;5012295;28;20546;-68
2022/09/29 04:15:34;;;;;;;7.95;6.30;;;;;;;;;;5011282;28;20050;-69
2022/09/29 04:18:00;;;;;;;11.27;6.10;;;;;;;;;;5011386;28;20051;-69
2022/09/29 04:20:27;;;;;;;8.57;6.65;;;;;;;;;;5010137;28;20109;-68
2022/09/29 04:22:53;;;;;;;8.23;6.22;;;;;;;;;;5011955;28;20105;-69
2022/09/29 04:25:19;;;;;;;10.20;6.82;;;;;;;;;;5011744;28;20066;-68
2022/09/29 04:27:45;;;;;;;7.78;6.20;;;;;;;;;;4996246;28;20058;-69
2022/09/29 04:30:12;;;;;;;7.63;6.18;;;;;;;;;;5010304;28;20050;-69
2022/09/29 04:32:38;;;;;;;8.75;5.95;;;;;;;;;;5010126;28;20058;-69
2022/09/29 04:35:04;;;;;;;9.18;6.15;;;;;;;;;;5002554;28;20062;-69
2022/09/29 04:37:31;;;;;;;11.45;6.13;;;;;;;;;;5003398;28;20059;-69
2022/09/29 04:39:57;;;;;;;10.80;6.18;;;;;;;;;;5010266;28;20054;-68
2022/09/29 04:42:23;;;;;;;7.93;6.47;;;;;;;;;;5011996;28;20049;-69
2022/09/29 04:44:50;;;;;;;12.77;6.20;;;;;;;;;;5011360;28;20054;-69
2022/09/29 04:47:16;;;;;;;9.00;6.75;;;;;;;;;;5006675;28;20569;-69
2022/09/29 04:49:42;;;;;;;8.98;6.18;;;;;;;;;;5009736;28;20105;-68
2022/09/29 04:52:12;;;;;;;7.07;5.70;;;;;;;;;;4998973;28;20553;-68
2022/09/29 04:54:38;;;;;;;7.93;6.30;;;;;;;;;;5009029;28;20062;-69
2022/09/29 04:57:05;;;;;;;8.00;6.22;;;;;;;;;;5003777;28;20042;-69
2022/09/29 04:59:37;;;;;;;10.38;6.82;;;;;;;;;;5003689;28;20546;-69
2022/09/29 05:02:03;;;;;;;10.15;6.85;;;;;;;;;;5001229;28;20062;-68
2022/09/29 05:04:30;;;;;;;11.68;7.15;;;;;;;;;;5010150;28;20090;-69
2022/09/29 05:06:56;;;;;;;7.97;6.35;;;;;;;;;;5010532;28;20097;-69
2022/09/29 05:09:22;;;;;;;9.27;6.68;;;;;;;;;;5007082;28;20055;-68
2022/09/29 05:11:50;;;;;;;9.98;6.40;;;;;;;;;;4991886;28;20057;-69
2022/09/29 05:14:16;;;;;;;8.98;6.65;;;;;;;;;;5002024;28;20128;-69
2022/09/29 05:16:43;;;;;;;10.38;6.68;;;;;;;;;;5009247;28;20055;-69
2022/09/29 05:19:09;;;;;;;11.35;7.07;;;;;;;;;;5010894;28;20070;-69
2022/09/29 05:21:36;;;;;;;7.53;6.13;;;;;;;;;;5012819;28;20093;-69
2022/09/29 05:24:02;;;;;;;8.75;6.15;;;;;;;;;;5014321;28;20194;-68
2022/09/29 05:26:28;;;;;;;10.00;6.63;;;;;;;;;;5013460;28;20506;-69
2022/09/29 05:28:55;;;;;;;7.95;6.03;;;;;;;;;;5004283;28;20058;-69
2022/09/29 05:31:21;;;;;;;8.77;6.50;;;;;;;;;;5009517;28;20473;-69
2022/09/29 05:33:47;;;;;;;8.65;6.22;;;;;;;;;;5014117;28;20494;-69
2022/09/29 05:36:14;;;;;;;10.70;6.57;;;;;;;;;;5013731;28;20628;-69
2022/09/29 05:38:40;;;;;;;10.82;6.53;;;;;;;;;;5014386;28;20202;-68
2022/09/29 05:41:08;;;;;;;16.00;7.05;;;;;;;;;;5014651;28;20128;-69
2022/09/29 05:43:34;;;;;;;12.48;6.05;;;;;;;;;;5013118;28;20104;-69
2022/09/29 05:46:01;;;;;;;15.07;6.47;;;;;;;;;;5005033;28;20108;-69
2022/09/29 05:48:31;;;;;;;34.60;9.00;;;;;;;;;;5014343;28;20151;-69
2022/09/29 05:50:58;;;;;;;29.95;7.13;;;;;;;;;;5013174;28;20482;-69
2022/09/29 05:53:24;;;;;;;30.27;6.82;;;;;;;;;;5009747;28;20105;-69
2022/09/29 05:55:51;;;;;;;25.40;7.10;;;;;;;;;;5006796;28;20097;-68
2022/09/29 05:58:18;;;;;;;19.90;7.85;;;;;;;;;;5011342;28;20109;-68
2022/09/29 06:00:44;;;;;;;12.45;6.53;;;;;;;;;;5010862;28;20054;-69
2022/09/29 06:03:10;;;;;;;9.50;6.72;;;;;;;;;;5009008;28;20049;-69
2022/09/29 06:05:37;;;;;;;11.57;6.30;;;;;;;;;;4999791;28;20058;-69
2022/09/29 06:08:04;;;;;;;20.60;7.00;;;;;;;;;;4994003;28;20050;-68
2022/09/29 06:10:31;;;;;;;16.95;6.35;;;;;;;;;;5004738;28;20054;-68
2022/09/29 06:12:58;;;;;;;8.50;6.50;;;;;;;;;;5013690;28;20109;-68
2022/09/29 06:15:24;;;;;;;11.00;6.63;;;;;;;;;;5007413;28;20065;-68
2022/09/29 06:17:54;;;;;;;10.55;6.38;;;;;;;;;;4994490;28;20062;-68
2022/09/29 06:20:21;;;;;;;17.90;7.05;;;;;;;;;;4996869;28;20165;-69
2022/09/29 06:22:47;;;;;;;8.82;6.18;;;;;;;;;;5013150;28;20124;-68
2022/09/29 06:25:14;;;;;;;53.55;8.60;;;;;;;;;;5013596;28;20059;-68
2022/09/29 06:27:40;;;;;;;14.40;6.50;;;;;;;;;;5010522;28;20055;-69
2022/09/29 06:30:07;;;;;;;16.95;7.03;;;;;;;;;;5012596;28;20089;-68
2022/09/29 06:32:34;;;;;;;20.13;9.02;;;;;;;;;;5012775;28;20144;-69
2022/09/29 06:37:45;;;;;;;18.55;7.60;;;;;;;;;;4993813;28;20055;-69
2022/09/29 06:40:12;;;;;;;16.75;7.90;;;;;;;;;;5004538;28;20078;-69
2022/09/29 06:42:40;;;;;;;17.40;7.18;;;;;;;;;;5011266;28;20549;-69
2022/09/29 06:45:06;;;;;;;21.17;7.05;;;;;;;;;;5013312;28;20054;-69
2022/09/29 06:47:32;;;;;;;11.55;7.30;;;;;;;;;;5011775;28;20105;-69
2022/09/29 06:50:00;;;;;;;28.55;8.27;;;;;;;;;;5011805;28;20050;-69
2022/09/29 06:52:35;;;;;;;23.98;8.30;;;;;;;;;;5012958;28;20062;-69
2022/09/29 06:55:01;;;;;;;31.30;8.35;;;;;;;;;;5012154;28;20058;-70
2022/09/29 06:57:27;;;;;;;13.32;7.65;;;;;;;;;;5012882;28;20062;-68
2022/09/29 06:59:53;;;;;;;17.98;7.50;;;;;;;;;;5012639;28;20066;-67
2022/09/29 07:02:20;;;;;;;13.18;8.05;;;;;;;;;;5004833;28;20089;-70
2022/09/29 07:04:47;;;;;;;11.10;7.72;;;;;;;;;;4993451;28;20600;-70
2022/09/29 07:07:14;;;;;;;12.13;7.95;;;;;;;;;;5010224;28;20062;-70
2022/09/29 07:09:41;;;;;;;12.07;7.72;;;;;;;;;;5006325;28;20108;-70
2022/09/29 07:12:07;;;;;;;10.77;8.25;;;;;;;;;;5008469;28;20483;-69
2022/09/29 07:14:34;;;;;;;10.10;7.57;;;;;;;;;;4994856;28;20062;-70
2022/09/29 07:17:01;;;;;;;14.75;8.07;;;;;;;;;;5011488;28;20058;-69
2022/09/29 07:19:27;;;;;;;12.60;8.40;;;;;;;;;;5011828;28;20066;-69
2022/09/29 07:21:54;;;;;;;19.70;9.05;;;;;;;;;;5012645;28;20051;-69
2022/09/29 07:24:20;;;;;;;14.20;9.05;;;;;;;;;;5012931;28;20055;-69
2022/09/29 07:26:46;;;;;;;11.75;8.60;;;;;;;;;;5010799;28;20113;-68
2022/09/29 07:29:12;;;;;;;17.48;9.18;;;;;;;;;;5012461;28;20093;-68
2022/09/29 07:31:41;;;;;;;12.75;9.02;;;;;;;;;;5012192;28;20565;-69
2022/09/29 07:34:16;;;;;;;15.52;11.10;;;;;;;;;;5011276;28;20100;-69
2022/09/29 07:36:42;;;;;;;13.75;9.60;;;;;;;;;;5012399;28;20061;-70
2022/09/29 07:39:09;;;;;;;14.70;10.10;;;;;;;;;;5012028;28;20125;-69
2022/09/29 07:41:35;;;;;;;12.65;9.52;;;;;;;;;;5002892;28;20118;-67
2022/09/29 07:44:01;;;;;;;13.40;9.98;;;;;;;;;;5007610;28;20112;-69
2022/09/29 07:46:28;;;;;;;15.48;11.40;;;;;;;;;;5012426;28;20412;-68
2022/09/29 07:48:54;;;;;;;15.40;10.57;;;;;;;;;;5007027;28;20051;-68
2022/09/29 07:51:20;;;;;;;15.57;10.82;;;;;;;;;;5007994;28;20058;-68
2022/09/29 07:53:47;;;;;;;16.45;11.98;;;;;;;;;;5011618;28;20557;-70
2022/09/29 07:56:13;;;;;;;23.15;12.65;;;;;;;;;;5007289;28;20089;-69
2022/09/29 07:58:40;;;;;;;20.60;12.80;;;;;;;;;;5002461;28;20055;-70
2022/09/29 08:01:09;;;;;;;17.70;12.50;;;;;;;;;;5010411;28;20115;-70
2022/09/29 08:03:37;;;;;;;16.48;12.90;;;;;;;;;;5012503;28;20566;-71
2022/09/29 08:06:04;;;;;;;18.98;14.10;;;;;;;;;;5012943;28;20065;-73
2022/09/29 08:08:30;;;;;;;20.48;13.95;;;;;;;;;;5012175;28;20050;-69
2022/09/29 08:11:00;;;;;;;21.95;13.80;;;;;;;;;;5011206;28;20999;-69
2022/09/29 08:13:27;;;;;;;21.10;13.85;;;;;;;;;;5009943;28;20058;-68
2022/09/29 08:15:57;;;;;;;24.15;14.20;;;;;;;;;;5009994;28;20210;-67
2022/09/29 08:18:23;;;;;;;19.33;13.45;;;;;;;;;;5007882;28;20062;-67
2022/09/29 08:20:49;;;;;;;20.45;14.35;;;;;;;;;;5010709;28;20051;-68
2022/09/29 08:23:16;;;;;;;18.30;13.98;;;;;;;;;;5011227;28;20062;-67
2022/09/29 08:25:42;;;;;;;20.38;14.30;;;;;;;;;;5010959;28;20120;-67
2022/09/29 08:28:24;;;;;;;20.55;15.10;;;;;;;;;;4998604;28;20083;-68
2022/09/29 08:31:00;;;;;;;22.15;15.30;;;;;;;;;;5010681;28;20423;-67
2022/09/29 08:33:31;;;;;;;24.85;16.08;;;;;;;;;;5011735;28;20081;-68
2022/09/29 08:35:58;;;;;;;23.50;16.20;;;;;;;;;;5011701;28;20058;-68
2022/09/29 08:38:25;;;;;;;26.10;17.35;;;;;;;;;;5010960;28;20577;-67
2022/09/29 08:40:53;;;;;;;30.67;18.20;;;;;;;;;;5010078;28;20062;-68
2022/09/29 08:43:39;;;;;;;33.15;17.73;;;;;;;;;;5011362;28;20054;-68
2022/09/29 08:46:08;;;;;;;28.40;17.35;;;;;;;;;;5010193;28;20097;-68
2022/09/29 08:48:36;;;;;;;25.02;17.27;;;;;;;;;;5005816;28;20510;-68
2022/09/29 08:51:30;;;;;;;27.40;18.02;;;;;;;;;;5008514;28;20074;-68
2022/09/29 08:54:14;;;;;;;25.70;17.23;;;;;;;;;;5011137;28;20065;-68
2022/09/29 08:56:41;;;;;;;32.22;18.92;;;;;;;;;;5012014;28;20101;-68
2022/09/29 08:59:09;;;;;;;31.80;18.30;;;;;;;;;;5013915;28;20054;-68
2022/09/29 09:02:08;;;;;;;29.48;19.65;;;;;;;;;;5012923;28;20113;-70
2022/09/29 09:04:40;;;;;;;32.10;20.63;;;;;;;;;;4985092;28;20515;-70
2022/09/29 09:07:16;;;;;;;32.60;19.48;;;;;;;;;;5014402;28;20117;-70
2022/09/29 09:09:58;;;;;;;40.70;22.67;;;;;;;;;;5012712;28;20538;-70
2022/09/29 09:12:42;;;;;;;35.45;22.70;;;;;;;;;;5014838;28;20057;-70
2022/09/29 09:15:08;;;;;;;34.53;21.23;;;;;;;;;;5014556;28;20062;-70
2022/09/29 09:17:53;;;;;;;36.85;22.02;;;;;;;;;;5014522;28;20050;-68
2022/09/29 09:20:43;;;;;;;32.60;21.05;;;;;;;;;;5014897;28;20054;-69
2022/09/29 09:23:12;;;;;;;34.17;20.77;;;;;;;;;;4995152;28;20055;-68
2022/09/29 09:25:41;;;;;;;36.85;21.33;;;;;;;;;;5000084;28;20065;-66
2022/09/29 09:28:07;;;;;;;34.42;22.80;;;;;;;;;;5011529;28;20097;-71
2022/09/29 09:30:37;;;;;;;34.83;21.08;;;;;;;;;;5013132;28;20578;-69
2022/09/29 09:33:08;;;;;;;31.35;22.48;;;;;;;;;;5013058;28;20059;-69
2022/09/29 09:35:57;;;;;;;38.35;22.50;;;;;;;;;;5014382;28;20065;-69
2022/09/29 09:38:27;;;;;;;35.88;21.45;;;;;;;;;;5013726;28;20061;-69
2022/09/29 09:40:55;;;;;;;37.80;24.90;;;;;;;;;;5013478;28;20074;-69
2022/09/29 09:43:32;;;;;;;35.03;22.42;;;;;;;;;;5014653;28;20109;-67
2022/09/29 09:46:18;;;;;;;38.28;24.75;;;;;;;;;;5014165;28;20058;-68
2022/09/29 09:48:54;;;;;;;35.70;24.55;;;;;;;;;;5014413;28;20065;-66
2022/09/29 09:51:40;;;;;;;35.90;23.60;;;;;;;;;;5013280;28;20110;-68
2022/09/29 09:54:12;;;;;;;31.10;21.83;;;;;;;;;;5012063;28;20510;-68
2022/09/29 09:56:38;;;;;;;33.72;23.40;;;;;;;;;;5012307;28;20066;-69
2022/09/29 09:59:21;;;;;;;37.47;23.88;;;;;;;;;;4999206;28;20107;-69
2022/09/29 10:01:47;;;;;;;39.45;24.38;;;;;;;;;;5012589;28;20113;-68
2022/09/29 10:04:14;;;;;;;40.40;24.75;;;;;;;;;;5012459;28;20133;-68
2022/09/29 10:06:40;;;;;;;37.70;26.20;;;;;;;;;;5013895;28;20051;-67
2022/09/29 10:09:11;;;;;;;38.53;23.52;;;;;;;;;;5012099;28;21138;-68
2022/09/29 10:11:37;;;;;;;36.72;24.33;;;;;;;;;;5011147;28;20050;-67
2022/09/29 10:14:10;;;;;;;35.78;22.33;;;;;;;;;;5013000;28;20116;-67
2022/09/29 10:16:40;;;;;;;33.40;22.63;;;;;;;;;;5011271;28;20109;-67
2022/09/29 10:19:07;;;;;;;38.70;23.63;;;;;;;;;;5003464;28;20491;-68
2022/09/29 10:21:35;;;;;;;39.45;25.25;;;;;;;;;;5007540;28;20065;-67
2022/09/29 10:24:03;;;;;;;42.75;25.83;;;;;;;;;;5013716;28;20062;-67
2022/09/29 10:26:42;;;;;;;45.13;27.30;;;;;;;;;;4993900;28;20554;-67
2022/09/29 10:29:27;;;;;;;41.67;25.92;;;;;;;;;;4993597;28;20106;-67
2022/09/29 10:32:08;;;;;;;46.60;26.80;;;;;;;;;;4995136;28;20478;-67
2022/09/29 10:34:36;;;;;;;40.38;25.95;;;;;;;;;;5012793;28;20285;-68
2022/09/29 10:37:04;;;;;;;45.58;25.88;;;;;;;;;;5014047;28;20113;-68
2022/09/29 10:39:39;;;;;;;44.95;25.65;;;;;;;;;;5013307;28;20055;-69
2022/09/29 10:42:15;;;;;;;37.10;23.17;;;;;;;;;;5013315;28;20058;-68
2022/09/29 10:44:48;;;;;;;41.28;24.13;;;;;;;;;;5012844;28;20549;-69
2022/09/29 10:47:15;;;;;;;42.85;25.40;;;;;;;;;;5012604;28;20765;-68
2022/09/29 10:49:41;;;;;;;38.88;25.35;;;;;;;;;;5013137;28;20058;-68
2022/09/29 10:52:22;;;;;;;38.50;24.67;;;;;;;;;;5011514;28;20054;-68
2022/09/29 10:54:56;;;;;;;36.72;22.38;;;;;;;;;;5009630;28;20058;-69
2022/09/29 10:57:27;;;;;;;31.92;19.42;;;;;;;;;;5011671;28;20104;-69
2022/09/29 10:59:54;;;;;;;31.50;19.20;;;;;;;;;;5009452;28;20551;-68
2022/09/29 11:02:26;;;;;;;36.33;19.13;;;;;;;;;;5012427;28;20570;-67
2022/09/29 11:04:54;;;;;;;24.63;16.75;;;;;;;;;;5001309;28;20109;-68
2022/09/29 11:07:21;;;;;;;32.40;19.55;;;;;;;;;;5009103;28;20058;-68
2022/09/29 11:09:49;;;;;;;30.83;20.58;;;;;;;;;;5004179;28;20094;-69
2022/09/29 11:12:24;;;;;;;36.15;20.92;;;;;;;;;;5000818;28;20058;-68
2022/09/29 11:14:51;;;;;;;29.73;17.90;;;;;;;;;;5012835;28;20062;-68
2022/09/29 11:17:35;;;;;;;25.38;16.55;;;;;;;;;;5012924;28;20054;-69
2022/09/29 11:20:04;;;;;;;23.63;14.70;;;;;;;;;;5012530;28;20113;-69
2022/09/29 11:22:30;;;;;;;29.48;16.20;;;;;;;;;;5012646;28;20058;-69
2022/09/29 11:24:56;;;;;;;21.80;12.68;;;;;;;;;;5011468;28;20054;-69
2022/09/29 11:27:28;;;;;;;16.48;10.70;;;;;;;;;;5006780;28;20068;-68
2022/09/29 11:29:55;;;;;;;21.27;10.43;;;;;;;;;;5011626;28;20054;-69
2022/09/29 11:32:39;;;;;;;15.77;9.98;;;;;;;;;;5007087;28;20573;-70
2022/09/29 11:35:21;;;;;;;15.35;9.25;;;;;;;;;;5012630;28;20042;-69
2022/09/29 11:38:15;;;;;;;13.02;8.10;;;;;;;;;;5011209;28;20070;-69
2022/09/29 11:41:00;;;;;;;9.63;5.60;;;;;;;;;;4994489;28;20059;-69
2022/09/29 11:43:32;;;;;;;9.63;5.57;;;;;;;;;;4996923;28;20593;-69
2022/09/29 11:46:05;;;;;;;14.18;8.48;;;;;;;;;;5004654;28;20104;-69
2022/09/29 11:48:38;;;;;;;12.60;7.43;;;;;;;;;;5011608;28;20159;-69
2022/09/29 11:51:17;;;;;;;11.95;6.53;;;;;;;;;;5010888;28;20121;-69
2022/09/29 11:53:53;;;;;;;9.20;7.10;;;;;;;;;;5011131;28;20058;-70
2022/09/29 11:56:20;;;;;;;11.88;7.50;;;;;;;;;;5011708;28;20922;-69
2022/09/29 11:58:58;;;;;;;9.20;6.20;;;;;;;;;;5010870;28;20054;-68
2022/09/29 12:01:25;;;;;;;9.50;6.38;;;;;;;;;;5009225;28;20051;-69
2022/09/29 12:04:10;;;;;;;9.55;5.25;;;;;;;;;;5011150;28;20054;-69
2022/09/29 12:06:46;;;;;;;9.30;5.80;;;;;;;;;;5003143;28;20114;-70
2022/09/29 12:09:22;;;;;;;7.82;5.22;;;;;;;;;;5011361;28;20058;-70
2022/09/29 12:11:54;;;;;;;8.35;5.35;;;;;;;;;;5011350;28;20638;-70
2022/09/29 12:14:44;;;;;;;15.65;7.80;;;;;;;;;;5011638;28;20105;-69
2022/09/29 12:17:15;;;;;;;11.30;6.95;;;;;;;;;;5007014;28;20105;-70
2022/09/29 12:19:42;;;;;;;10.27;7.00;;;;;;;;;;4995075;28;20517;-70
2022/09/29 12:22:10;;;;;;;9.20;5.90;;;;;;;;;;5007139;28;20503;-69
2022/09/29 12:24:40;;;;;;;7.88;5.50;;;;;;;;;;5011314;28;20109;-70
2022/09/29 12:27:15;;;;;;;8.10;5.72;;;;;;;;;;5007843;28;20211;-67
2022/09/29 12:29:41;;;;;;;;;;;;;;;;;;5007019;28;20057;-68
2022/09/29 12:32:12;;;;;;;13.68;4.97;;;;;;;;;;5001853;28;44068;-70
2022/09/29 12:34:50;;;;;;;7.07;4.35;;;;;;;;;;4998369;28;20059;-71
2022/09/29 12:37:22;;;;;;;6.43;5.18;;;;;;;;;;5002072;28;20105;-71
2022/09/29 12:39:55;;;;;;;6.35;4.00;;;;;;;;;;5010174;28;20061;-71
2022/09/29 12:42:37;;;;;;;7.20;4.80;;;;;;;;;;5003097;28;20576;-72
2022/09/29 12:45:13;;;;;;;7.35;4.80;;;;;;;;;;5010114;28;20596;-68
2022/09/29 12:47:42;;;;;;;8.23;5.32;;;;;;;;;;4991635;28;20062;-69
2022/09/29 12:50:21;;;;;;;4.95;3.90;;;;;;;;;;5010364;28;20050;-68
2022/09/29 12:52:47;;;;;;;5.70;3.80;;;;;;;;;;5007909;28;20446;-70
2022/09/29 12:55:24;;;;;;;5.60;3.92;;;;;;;;;;5007542;28;20058;-70
2022/09/29 12:57:53;;;;;;;5.97;3.95;;;;;;;;;;5009643;28;20057;-70
2022/09/29 13:00:19;;;;;;;5.85;4.03;;;;;;;;;;5010651;28;20112;-70
2022/09/29 13:02:55;;;;;;;6.30;4.10;;;;;;;;;;5009938;28;20113;-70
2022/09/29 13:05:21;;;;;;;;;;;;;;;;;;5012594;28;20051;-70
2022/09/29 13:07:47;;;;;;;;;;;;;;;;;;5025135;28;46806;-70
2022/09/29 13:10:37;;;;;;;4.05;2.90;;;;;;;;;;5010270;28;47055;-70
2022/09/29 13:13:06;;;;;;;3.90;2.90;;;;;;;;;;4991874;28;20524;-70
2022/09/29 13:15:32;;;;;;;4.60;2.63;;;;;;;;;;4995155;28;20066;-70
2022/09/29 13:17:58;;;;;;;3.33;2.42;;;;;;;;;;5009836;28;20050;-70
2022/09/29 13:20:41;;;;;;;5.00;2.38;;;;;;;;;;5015283;28;20050;-70
2022/09/29 13:23:11;;;;;;;3.30;2.17;;;;;;;;;;5009576;28;20054;-68
2022/09/29 13:25:56;;;;;;;4.03;2.22;;;;;;;;;;5010353;28;20050;-69
2022/09/29 13:28:35;;;;;;;3.93;2.50;;;;;;;;;;5010393;28;20070;-69
2022/09/29 13:31:03;;;;;;;3.05;2.38;;;;;;;;;;5010928;28;20505;-70
2022/09/29 13:33:30;;;;;;;5.20;2.42;;;;;;;;;;5010386;28;20109;-69
2022/09/29 13:35:56;;;;;;;3.03;2.42;;;;;;;;;;5009226;28;20166;-71
2022/09/29 13:38:27;;;;;;;5.10;2.55;;;;;;;;;;5001755;28;20058;-72
2022/09/29 13:41:12;;;;;;;2.85;2.10;;;;;;;;;;4995812;28;20061;-71
2022/09/29 13:44:00;;;;;;;3.28;2.80;;;;;;;;;;5013257;28;20054;-71
2022/09/29 13:46:30;;;;;;;2.08;1.67;;;;;;;;;;5012751;28;20046;-71
2022/09/29 13:49:08;;;;;;;1.65;1.45;;;;;;;;;;5011947;28;20054;-70
2022/09/29 13:51:53;;;;;;;3.53;1.48;;;;;;;;;;5010750;28;20066;-70
2022/09/29 13:54:23;;;;;;;2.28;1.70;;;;;;;;;;5006955;28;20058;-70
2022/09/29 13:56:50;;;;;;;3.30;1.60;;;;;;;;;;5012017;28;20566;-70
2022/09/29 13:59:20;;;;;;;2.05;1.75;;;;;;;;;;5015646;28;20498;-69
2022/09/29 14:01:49;;;;;;;2.05;1.63;;;;;;;;;;5015029;28;20139;-69
2022/09/29 14:04:34;;;;;;;3.13;1.85;;;;;;;;;;5007849;28;20054;-69
2022/09/29 14:07:04;;;;;;;5.70;1.95;;;;;;;;;;5010503;28;20061;-69
2022/09/29 14:09:32;;;;;;;1.98;1.52;;;;;;;;;;5011217;28;20529;-69
2022/09/29 14:12:04;;;;;;;2.22;1.83;;;;;;;;;;5008952;28;20058;-73
2022/09/29 14:14:32;;;;;;;2.10;1.73;;;;;;;;;;5011664;28;20392;-69
2022/09/29 14:17:04;;;;;;;2.03;1.58;;;;;;;;;;5012873;28;20062;-69
2022/09/29 14:19:35;;;;;;;3.50;1.60;;;;;;;;;;5007307;28;20058;-69
2022/09/29 14:22:24;;;;;;;2.00;1.10;;;;;;;;;;5012965;28;20058;-71
2022/09/29 14:24:54;;;;;;;1.90;1.08;;;;;;;;;;5014320;28;20073;-68
2022/09/29 14:27:36;;;;;;;2.92;1.40;;;;;;;;;;5011966;28;20494;-70
2022/09/29 14:30:02;;;;;;;2.10;1.65;;;;;;;;;;5012138;28;20054;-71
2022/09/29 14:32:40;;;;;;;2.83;1.95;;;;;;;;;;5013190;28;20058;-71
2022/09/29 14:35:19;;;;;;;1.98;1.77;;;;;;;;;;5011802;28;20133;-69
2022/09/29 14:37:48;;;;;;;3.50;1.70;;;;;;;;;;5008258;28;20070;-70
2022/09/29 14:40:28;;;;;;;1.10;1.00;;;;;;;;;;5004624;28;20054;-70
2022/09/29 14:43:13;;;;;;;4.32;1.05;;;;;;;;;;5012438;28;20054;-70
2022/09/29 14:52:11;;;;;;;0.70;0.70;;;;;;;;;;5012687;28;20054;-69
2022/09/29 14:54:56;;;;;;;1.70;1.20;;;;;;;;;;5007259;28;20054;-70
2022/09/29 14:57:46;;;;;;;2.00;0.93;;;;;;;;;;5011296;28;20047;-70
2022/09/29 15:00:20;;;;;;;1.67;0.60;;;;;;;;;;5013889;28;20058;-70
2022/09/29 15:02:48;;;;;;;0.80;0.80;;;;;;;;;;5012265;28;20573;-70